Time;durP1;ratioP1;P1;durP2;ratioP2;P2;SDS_P1;SDS_P2;PMS_P1;PMS_P2;Temp;Humidity;BMP_temperature;BMP_pressure;BME280_temperature;BME280_humidity;BME280_pressure;Samples;Min_cycle;Max_cycle;Signal;HPM_P1;HPM_P2
2021/03/04 00:00:18;;;;;;;;;;;16.70;66.30;;;;;;5030999;28;19913;-74
2021/03/04 00:02:44;;;;;;;;;;;16.70;66.30;;;;;;5043587;28;19917;-74
2021/03/04 00:05:10;;;;;;;;;;;16.70;66.30;;;;;;5045403;28;19987;-74
2021/03/04 00:07:36;;;;;;;;;;;16.60;66.30;;;;;;5028566;28;19920;-74
2021/03/04 00:10:04;;;;;;;;;;;16.60;66.30;;;;;;5032229;28;19912;-74
2021/03/04 00:12:32;;;;;;;;;;;16.60;66.30;;;;;;5030198;28;19916;-75
2021/03/04 00:15:02;;;;;;;;;;;16.60;66.30;;;;;;5047584;28;19970;-75
2021/03/04 00:17:41;;;;;;;;;;;16.60;66.30;;;;;;5048342;28;19913;-74
2021/03/04 00:20:08;;;;;;;;;;;16.70;66.30;;;;;;5044388;28;19913;-74
2021/03/04 00:22:34;;;;;;;;;;;16.60;66.20;;;;;;5031204;28;19924;-75
2021/03/04 00:25:00;;;;;;;;;;;16.60;66.20;;;;;;5033128;28;19913;-75
2021/03/04 00:27:28;;;;;;;;;;;16.60;66.20;;;;;;5027890;28;20409;-74
2021/03/04 00:29:53;;;;;;;;;;;16.60;66.20;;;;;;5046589;28;19956;-74
2021/03/04 00:32:19;;;;;;;;;;;16.70;66.20;;;;;;5047108;28;19963;-74
2021/03/04 00:34:45;;;;;;;;;;;16.60;66.20;;;;;;5030008;28;19970;-74
2021/03/04 00:37:10;;;;;;;;;;;16.70;66.20;;;;;;5027669;28;19928;-74
2021/03/04 00:39:36;;;;;;;;;;;16.60;66.20;;;;;;5045077;28;19917;-74
2021/03/04 00:42:02;;;;;;;;;;;16.60;66.10;;;;;;5047045;28;19921;-74
2021/03/04 00:44:28;;;;;;;;;;;16.70;66.10;;;;;;5050954;28;19958;-74
2021/03/04 00:46:53;;;;;;;;;;;16.70;66.10;;;;;;5031061;28;19943;-74
2021/03/04 00:49:19;;;;;;;;;;;16.60;66.00;;;;;;5029196;28;19912;-75
2021/03/04 00:51:44;;;;;;;;;;;16.60;66.00;;;;;;5046200;28;20038;-74
2021/03/04 00:54:10;;;;;;;;;;;16.60;66.00;;;;;;5045399;28;19917;-74
2021/03/04 00:56:35;;;;;;;;;;;16.60;66.00;;;;;;5046854;28;19924;-75
2021/03/04 00:59:01;;;;;;;;;;;16.60;66.00;;;;;;5024876;28;19913;-74
2021/03/04 01:01:26;;;;;;;;;;;16.60;66.00;;;;;;5031435;28;20451;-74
2021/03/04 01:03:52;;;;;;;;;;;16.60;66.00;;;;;;5048730;28;19917;-74
2021/03/04 01:06:19;;;;;;;;;;;16.60;66.00;;;;;;5047642;28;20350;-74
2021/03/04 01:08:45;;;;;;;;;;;16.60;66.00;;;;;;5028527;28;19912;-74
2021/03/04 01:11:11;;;;;;;;;;;16.60;66.00;;;;;;5045093;28;19921;-74
2021/03/04 01:13:37;;;;;;;;;;;16.60;66.00;;;;;;5028965;28;19924;-74
2021/03/04 01:16:03;;;;;;;;;;;16.60;66.00;;;;;;5031244;28;19927;-74
2021/03/04 01:18:28;;;;;;;;;;;16.60;66.00;;;;;;5030217;28;19920;-74
2021/03/04 01:20:54;;;;;;;;;;;16.60;66.00;;;;;;5028064;28;19913;-74
2021/03/04 01:23:20;;;;;;;;;;;16.60;65.90;;;;;;5048211;28;19913;-74
2021/03/04 01:25:45;;;;;;;;;;;16.60;65.90;;;;;;5030949;28;19958;-74
2021/03/04 01:28:14;;;;;;;;;;;16.60;65.90;;;;;;5030615;28;20321;-75
2021/03/04 01:30:39;;;;;;;;;;;16.60;65.90;;;;;;5045794;28;19919;-74
2021/03/04 01:33:05;;;;;;;;;;;16.60;65.90;;;;;;5030499;28;19916;-74
2021/03/04 01:35:31;;;;;;;;;;;16.60;65.90;;;;;;5028638;28;20039;-74
2021/03/04 01:38:01;;;;;;;;;;;16.60;65.90;;;;;;5027455;28;19913;-74
2021/03/04 01:40:27;;;;;;;;;;;16.60;65.80;;;;;;5046055;28;19935;-74
2021/03/04 01:42:53;;;;;;;;;;;16.60;65.90;;;;;;5048286;28;20705;-74
2021/03/04 01:45:18;;;;;;;;;;;16.60;65.90;;;;;;5047941;28;19917;-75
2021/03/04 01:47:52;;;;;;;;;;;16.60;65.90;;;;;;5048638;28;19920;-75
2021/03/04 01:50:23;;;;;;;;;;;16.60;65.90;;;;;;5027588;28;19913;-74
2021/03/04 01:52:49;;;;;;;;;;;16.60;65.80;;;;;;5026797;28;19931;-74
2021/03/04 01:55:19;;;;;;;;;;;16.60;65.80;;;;;;5044666;28;20362;-74
2021/03/04 01:57:46;;;;;;;;;;;16.60;65.80;;;;;;5046485;28;19923;-74
2021/03/04 02:00:12;;;;;;;;;;;16.60;65.80;;;;;;5038610;28;19920;-74
2021/03/04 02:02:37;;;;;;;;;;;16.60;65.80;;;;;;5047341;28;19999;-75
2021/03/04 02:05:05;;;;;;;;;;;16.60;65.80;;;;;;5026513;28;20728;-75
2021/03/04 02:07:50;;;;;;;;;;;16.60;65.80;;;;;;5042871;28;20054;-74
2021/03/04 02:10:21;;;;;;;;;;;16.60;65.80;;;;;;5019773;28;19955;-74
2021/03/04 02:13:07;;;;;;;;;;;16.60;65.80;;;;;;5027997;28;19917;-74
2021/03/04 02:15:40;;;;;;;;;;;16.60;65.80;;;;;;5044737;28;19917;-75
2021/03/04 02:18:07;;;;;;;;;;;16.60;65.70;;;;;;5048985;28;19917;-74
2021/03/04 02:20:56;;;;;;;;;;;16.60;65.80;;;;;;5032312;28;19951;-74
2021/03/04 02:23:33;;;;;;;;;;;16.60;65.70;;;;;;5028759;28;19924;-74
2021/03/04 02:26:22;;;;;;;;;;;16.60;65.70;;;;;;5047223;28;19920;-74
2021/03/04 02:28:48;;;;;;;;;;;16.60;65.60;;;;;;5033483;28;19921;-74
2021/03/04 02:31:19;;;;;;;;;;;16.60;65.60;;;;;;5049907;28;19971;-74
2021/03/04 02:33:46;;;;;;;;;;;16.60;65.60;;;;;;5050934;28;19916;-74
2021/03/04 02:36:12;;;;;;;;;;;16.60;65.70;;;;;;5027072;28;19921;-74
2021/03/04 02:38:37;;;;;;;;;;;16.60;65.60;;;;;;5046704;28;20585;-74
2021/03/04 02:41:04;;;;;;;;;;;16.60;65.60;;;;;;5052233;28;19917;-74
2021/03/04 02:43:34;;;;;;;;;;;16.60;65.60;;;;;;5050702;28;19917;-74
2021/03/04 02:46:01;;;;;;;;;;;16.60;65.60;;;;;;5047967;28;19919;-74
2021/03/04 02:48:27;;;;;;;;;;;16.60;65.60;;;;;;5050309;28;20400;-74
2021/03/04 02:50:53;;;;;;;;;;;16.60;65.60;;;;;;5048710;28;19913;-74
2021/03/04 02:53:23;;;;;;;;;;;16.60;65.60;;;;;;5048887;28;19987;-74
2021/03/04 02:55:50;;;;;;;;;;;16.60;65.60;;;;;;5033489;28;19917;-75
2021/03/04 02:58:20;;;;;;;;;;;16.60;65.60;;;;;;5047612;28;20007;-74
2021/03/04 03:00:46;;;;;;;;;;;16.60;65.60;;;;;;5046035;28;20020;-75
2021/03/04 03:03:13;;;;;;;;;;;16.60;65.60;;;;;;5048855;28;20098;-74
2021/03/04 03:05:40;;;;;;;;;;;16.60;65.60;;;;;;5046044;28;20286;-74
2021/03/04 03:08:07;;;;;;;;;;;16.60;65.50;;;;;;5029613;28;19912;-74
2021/03/04 03:10:33;;;;;;;;;;;16.60;65.50;;;;;;5042840;28;19912;-74
2021/03/04 03:13:00;;;;;;;;;;;16.50;65.50;;;;;;5033063;28;19925;-74
2021/03/04 03:15:27;;;;;;;;;;;16.60;65.50;;;;;;5050811;28;19929;-74
2021/03/04 03:17:53;;;;;;;;;;;16.60;65.50;;;;;;5049021;28;19920;-74
2021/03/04 03:20:20;;;;;;;;;;;16.50;65.50;;;;;;5048183;28;20019;-75
2021/03/04 03:22:46;;;;;;;;;;;16.50;65.50;;;;;;5047079;28;19913;-75
2021/03/04 03:25:14;;;;;;;;;;;16.50;65.50;;;;;;5049588;28;19919;-74
2021/03/04 03:27:41;;;;;;;;;;;16.60;65.40;;;;;;5047256;28;19920;-74
2021/03/04 03:30:14;;;;;;;;;;;16.60;65.50;;;;;;5035809;28;20305;-74
2021/03/04 03:32:48;;;;;;;;;;;16.50;65.40;;;;;;5031123;28;19951;-74
2021/03/04 03:35:14;;;;;;;;;;;16.60;65.50;;;;;;5040618;28;20136;-74
2021/03/04 03:37:40;;;;;;;;;;;16.60;65.40;;;;;;5039814;28;19959;-74
2021/03/04 03:40:06;;;;;;;;;;;16.60;65.40;;;;;;5033478;28;20593;-75
2021/03/04 03:42:34;;;;;;;;;;;16.60;65.40;;;;;;5032234;28;20378;-75
2021/03/04 03:45:00;;;;;;;;;;;16.50;65.40;;;;;;5031883;28;19912;-74
2021/03/04 03:47:26;;;;;;;;;;;16.50;65.40;;;;;;5047846;28;19913;-74
2021/03/04 03:49:52;;;;;;;;;;;16.60;65.40;;;;;;5045408;28;19913;-75
2021/03/04 03:52:23;;;;;;;;;;;16.60;65.40;;;;;;5050554;28;19974;-74
2021/03/04 03:54:48;;;;;;;;;;;16.60;65.40;;;;;;5050313;28;19917;-74
2021/03/04 03:57:14;;;;;;;;;;;16.60;65.40;;;;;;5027252;28;19983;-74
2021/03/04 03:59:44;;;;;;;;;;;16.60;65.40;;;;;;5028464;28;19924;-72
2021/03/04 04:02:10;;;;;;;;;;;16.60;65.30;;;;;;5032622;28;19916;-72
2021/03/04 04:04:36;;;;;;;;;;;16.60;65.30;;;;;;5045739;28;19935;-73
2021/03/04 04:07:03;;;;;;;;;;;16.60;65.30;;;;;;5048431;28;19912;-73
2021/03/04 04:09:29;;;;;;;;;;;16.60;65.30;;;;;;5046963;28;20420;-72
2021/03/04 04:11:54;;;;;;;;;;;16.60;65.30;;;;;;5047796;28;19952;-72
2021/03/04 04:14:20;;;;;;;;;;;16.60;65.30;;;;;;5050551;28;19916;-73
2021/03/04 04:16:46;;;;;;;;;;;16.60;65.30;;;;;;5049501;28;19943;-73
2021/03/04 04:19:11;;;;;;;;;;;16.60;65.30;;;;;;5035907;28;20424;-72
2021/03/04 04:21:37;;;;;;;;;;;16.60;65.30;;;;;;5042438;28;19959;-72
2021/03/04 04:24:03;;;;;;;;;;;16.60;65.30;;;;;;5029935;28;19931;-72
2021/03/04 04:26:29;;;;;;;;;;;16.60;65.30;;;;;;5047606;28;19913;-72
2021/03/04 04:28:59;;;;;;;;;;;16.60;65.30;;;;;;5024135;28;19959;-72
2021/03/04 04:31:30;;;;;;;;;;;16.50;65.30;;;;;;5047854;28;19920;-72
2021/03/04 04:33:55;;;;;;;;;;;16.50;65.30;;;;;;5031517;28;19921;-73
2021/03/04 04:36:21;;;;;;;;;;;16.60;65.20;;;;;;5030466;28;19987;-72
2021/03/04 04:38:46;;;;;;;;;;;16.60;65.20;;;;;;5041031;28;19913;-73
2021/03/04 04:41:12;;;;;;;;;;;16.60;65.20;;;;;;5047337;28;19917;-73
2021/03/04 04:43:51;;;;;;;;;;;16.60;65.30;;;;;;5046378;28;19917;-71
2021/03/04 04:46:17;;;;;;;;;;;16.50;65.20;;;;;;5046653;28;19912;-72
2021/03/04 04:48:43;;;;;;;;;;;16.60;65.20;;;;;;5045293;28;19919;-73
2021/03/04 04:51:10;;;;;;;;;;;16.60;65.20;;;;;;5045987;28;19920;-72
2021/03/04 04:53:36;;;;;;;;;;;16.60;65.20;;;;;;5044964;28;19956;-73
2021/03/04 04:56:01;;;;;;;;;;;16.60;65.20;;;;;;5046720;28;20311;-72
2021/03/04 04:58:27;;;;;;;;;;;16.50;65.20;;;;;;5045854;28;19920;-72
2021/03/04 05:00:52;;;;;;;;;;;16.50;65.20;;;;;;5040441;28;19913;-72
2021/03/04 05:03:20;;;;;;;;;;;16.60;65.20;;;;;;5027159;28;21443;-72
2021/03/04 05:05:51;;;;;;;;;;;16.50;65.20;;;;;;5027634;28;19920;-72
2021/03/04 05:08:17;;;;;;;;;;;16.50;65.10;;;;;;5028942;28;19921;-72
2021/03/04 05:10:42;;;;;;;;;;;16.60;65.10;;;;;;5045517;28;19915;-72
2021/03/04 05:13:08;;;;;;;;;;;16.60;65.10;;;;;;5029677;28;19925;-72
2021/03/04 05:15:33;;;;;;;;;;;16.50;65.10;;;;;;5046823;28;19920;-72
2021/03/04 05:17:59;;;;;;;;;;;16.50;65.10;;;;;;5028533;28;19909;-73
2021/03/04 05:20:29;;;;;;;;;;;16.50;65.10;;;;;;5046022;28;19948;-72
2021/03/04 05:23:00;;;;;;;;;;;16.60;65.10;;;;;;5030599;28;19917;-72
2021/03/04 05:25:25;;;;;;;;;;;16.60;65.10;;;;;;5043452;28;20003;-72
2021/03/04 05:27:51;;;;;;;;;;;16.60;65.10;;;;;;5041065;28;20011;-73
2021/03/04 05:30:17;;;;;;;;;;;16.60;65.10;;;;;;5044833;28;20346;-73
2021/03/04 05:32:42;;;;;;;;;;;16.50;65.10;;;;;;5040555;28;19929;-72
2021/03/04 05:35:08;;;;;;;;;;;16.50;65.10;;;;;;5039360;28;19921;-73
2021/03/04 05:37:34;;;;;;;;;;;16.50;65.10;;;;;;5023546;28;20636;-72
2021/03/04 05:39:59;;;;;;;;;;;16.50;65.10;;;;;;5029917;28;19913;-72
2021/03/04 05:42:32;;;;;;;;;;;16.50;65.10;;;;;;5029683;28;19920;-73
2021/03/04 05:45:03;;;;;;;;;;;16.50;65.10;;;;;;5023630;28;19935;-76
2021/03/04 05:47:28;;;;;;;;;;;16.50;65.10;;;;;;5030690;28;20561;-73
2021/03/04 05:50:03;;;;;;;;;;;16.50;65.00;;;;;;5030445;28;19917;-73
2021/03/04 05:52:29;;;;;;;;;;;16.50;65.10;;;;;;5029493;28;19925;-73
2021/03/04 05:54:55;;;;;;;;;;;16.60;65.10;;;;;;5051648;28;19930;-72
2021/03/04 05:57:21;;;;;;;;;;;16.50;65.10;;;;;;5035588;28;19923;-72
2021/03/04 05:59:50;;;;;;;;;;;16.50;65.00;;;;;;5034779;28;19913;-73
2021/03/04 06:02:17;;;;;;;;;;;16.60;65.00;;;;;;5050711;28;19924;-73
2021/03/04 06:04:43;;;;;;;;;;;16.60;65.00;;;;;;5029329;28;20336;-73
2021/03/04 06:07:08;;;;;;;;;;;16.50;65.00;;;;;;5050432;28;19917;-73
2021/03/04 06:09:39;;;;;;;;;;;16.50;65.00;;;;;;5047816;28;19979;-73
2021/03/04 06:12:05;;;;;;;;;;;16.60;65.00;;;;;;5042217;28;20009;-73
2021/03/04 06:14:35;;;;;;;;;;;16.50;65.00;;;;;;5034735;28;19917;-72
2021/03/04 06:17:10;;;;;;;;;;;16.60;65.00;;;;;;5047186;28;20420;-73
2021/03/04 06:19:36;;;;;;;;;;;16.60;64.90;;;;;;5049463;28;19924;-73
2021/03/04 06:22:01;;;;;;;;;;;16.60;64.90;;;;;;5044121;28;19913;-73
2021/03/04 06:24:32;;;;;;;;;;;16.60;64.90;;;;;;5046402;28;20396;-72
2021/03/04 06:26:57;;;;;;;;;;;16.60;64.90;;;;;;5052505;28;20366;-72
2021/03/04 06:29:25;;;;;;;;;;;16.50;64.80;;;;;;5047549;28;20010;-72
2021/03/04 06:32:05;;;;;;;;;;;16.60;64.90;;;;;;5034892;28;20376;-72
2021/03/04 06:34:31;;;;;;;;;;;16.60;64.80;;;;;;5048107;28;19925;-72
2021/03/04 06:37:06;;;;;;;;;;;16.60;64.80;;;;;;5049570;28;19974;-73
2021/03/04 06:39:44;;;;;;;;;;;16.60;64.80;;;;;;5043313;28;19928;-73
2021/03/04 06:42:10;;;;;;;;;;;16.60;64.80;;;;;;5050746;28;19916;-72
2021/03/04 06:44:39;;;;;;;;;;;16.60;64.80;;;;;;5033934;28;19917;-72
2021/03/04 06:47:05;;;;;;;;;;;16.60;64.80;;;;;;5048328;28;19963;-72
2021/03/04 06:49:37;;;;;;;;;;;16.60;64.70;;;;;;5047769;28;20011;-72
2021/03/04 06:52:03;;;;;;;;;;;16.60;64.70;;;;;;5032524;28;19964;-73
2021/03/04 06:54:29;;;;;;;;;;;16.60;64.70;;;;;;5040888;28;19944;-73
2021/03/04 06:57:07;;;;;;;;;;;16.60;64.70;;;;;;5054976;28;19916;-75
2021/03/04 06:59:45;;;;;;;;;;;16.60;64.70;;;;;;5031341;28;20015;-75
2021/03/04 07:02:22;;;;;;;;;;;16.60;64.60;;;;;;5031449;28;19971;-73
2021/03/04 07:05:04;;;;;;;;;;;16.60;64.70;;;;;;5050324;28;19921;-74
2021/03/04 07:07:29;;;;;;;;;;;16.60;64.60;;;;;;5047747;28;19917;-73
2021/03/04 07:10:09;;;;;;;;;;;16.60;64.60;;;;;;5047551;28;19966;-74
2021/03/04 07:12:38;;;;;;;;;;;16.60;64.60;;;;;;5035549;28;20058;-73
2021/03/04 07:15:09;;;;;;;;;;;16.60;64.60;;;;;;5031677;28;19952;-74
2021/03/04 07:17:39;;;;;;;;;;;16.60;64.50;;;;;;5033440;28;19975;-73
2021/03/04 07:20:05;;;;;;;;;;;16.60;64.50;;;;;;5042172;28;19913;-74
2021/03/04 07:22:35;;;;;;;;;;;16.70;64.50;;;;;;5027863;28;19920;-74
2021/03/04 07:25:00;;;;;;;;;;;16.60;64.50;;;;;;5041374;28;19913;-74
2021/03/04 07:27:31;;;;;;;;;;;16.70;64.50;;;;;;5039246;28;19913;-74
2021/03/04 07:29:56;;;;;;;;;;;16.70;64.50;;;;;;5033695;28;20397;-73
2021/03/04 07:32:27;;;;;;;;;;;16.70;64.40;;;;;;5031620;28;19913;-74
2021/03/04 07:34:53;;;;;;;;;;;16.70;64.40;;;;;;5043953;28;19925;-73
2021/03/04 07:37:20;;;;;;;;;;;16.70;64.40;;;;;;5045566;28;19919;-73
2021/03/04 07:39:47;;;;;;;;;;;16.70;64.30;;;;;;5038434;28;19979;-73
2021/03/04 07:42:17;;;;;;;;;;;16.80;64.30;;;;;;5033389;28;20014;-73
2021/03/04 07:44:43;;;;;;;;;;;16.80;64.20;;;;;;5033686;28;19940;-73
2021/03/04 07:47:14;;;;;;;;;;;16.70;64.20;;;;;;5048661;28;19928;-73
2021/03/04 07:49:43;;;;;;;;;;;16.80;64.10;;;;;;5029167;28;19921;-73
2021/03/04 07:52:13;;;;;;;;;;;16.70;64.10;;;;;;5044291;28;19921;-73
2021/03/04 07:54:44;;;;;;;;;;;16.80;64.10;;;;;;5024565;28;20018;-73
2021/03/04 07:57:15;;;;;;;;;;;16.80;64.10;;;;;;5030675;28;20011;-72
2021/03/04 08:00:00;;;;;;;;;;;16.80;64.00;;;;;;5046425;28;19913;-73
2021/03/04 08:02:26;;;;;;;;;;;16.80;64.00;;;;;;5027552;28;19971;-73
2021/03/04 08:05:11;;;;;;;;;;;16.80;64.00;;;;;;5023431;28;19913;-74
2021/03/04 08:07:44;;;;;;;;;;;16.80;63.90;;;;;;5041356;28;19936;-73
2021/03/04 08:10:22;;;;;;;;;;;16.80;63.90;;;;;;5030790;28;19920;-73
2021/03/04 08:12:58;;;;;;;;;;;16.80;63.90;;;;;;5043237;28;19924;-74
2021/03/04 08:15:35;;;;;;;;;;;16.80;63.90;;;;;;5033563;28;19921;-74
2021/03/04 08:18:01;;;;;;;;;;;16.80;63.80;;;;;;5037436;28;19921;-72
2021/03/04 08:20:26;;;;;;;;;;;16.80;63.80;;;;;;5040552;28;20349;-72
2021/03/04 08:22:53;;;;;;;;;;;16.80;63.80;;;;;;5045116;28;19927;-74
2021/03/04 08:25:41;;;;;;;;;;;16.80;63.70;;;;;;5024753;28;19967;-73
2021/03/04 08:28:06;;;;;;;;;;;16.80;63.70;;;;;;5032889;28;19913;-73
2021/03/04 08:30:34;;;;;;;;;;;16.80;63.70;;;;;;5028281;28;20264;-74
2021/03/04 08:33:04;;;;;;;;;;;16.80;63.70;;;;;;5027555;28;19967;-74
2021/03/04 08:35:30;;;;;;;;;;;16.80;63.60;;;;;;5027172;28;19971;-73
2021/03/04 08:38:02;;;;;;;;;;;16.80;63.60;;;;;;5045241;28;20329;-73
2021/03/04 08:40:32;;;;;;;;;;;16.90;63.50;;;;;;5016590;28;19913;-73
2021/03/04 08:43:07;;;;;;;;;;;16.90;63.50;;;;;;5039330;28;19919;-72
2021/03/04 08:45:32;;;;;;;;;;;16.90;63.40;;;;;;5031413;28;20372;-73
2021/03/04 08:47:58;;;;;;;;;;;17.00;63.30;;;;;;5027946;28;20007;-75
2021/03/04 08:51:00;;;;;;;;;;;17.00;63.20;;;;;;5044362;28;20115;-74
2021/03/04 08:53:29;;;;;;;;;;;17.00;63.10;;;;;;5033187;28;20385;-74
2021/03/04 08:55:56;;;;;;;;;;;17.00;63.00;;;;;;5031495;28;19917;-74
2021/03/04 08:58:22;;;;;;;;;;;17.00;63.00;;;;;;5032356;28;20413;-73
2021/03/04 09:00:55;;;;;;;;;;;17.00;63.00;;;;;;5035588;28;19913;-74
2021/03/04 09:03:21;;;;;;;;;;;17.00;62.90;;;;;;5048913;28;20281;-73
2021/03/04 09:05:47;;;;;;;;;;;17.00;62.90;;;;;;5042109;28;19972;-74
2021/03/04 09:08:14;;;;;;;;;;;17.00;62.90;;;;;;5045348;28;20570;-73
2021/03/04 09:10:45;;;;;;;;;;;17.00;62.90;;;;;;5025850;28;19919;-73
2021/03/04 09:13:13;;;;;;;;;;;17.10;62.90;;;;;;5042370;28;20350;-73
2021/03/04 09:15:44;;;;;;;;;;;17.10;62.80;;;;;;5046110;28;19939;-74
2021/03/04 09:18:10;;;;;;;;;;;17.10;62.90;;;;;;5028951;28;19912;-73
2021/03/04 09:20:36;;;;;;;;;;;17.00;62.80;;;;;;5041573;28;20281;-74
2021/03/04 09:23:03;;;;;;;;;;;17.10;62.80;;;;;;5025587;28;19917;-73
2021/03/04 09:25:34;;;;;;;;;;;17.10;62.80;;;;;;5025201;28;19971;-74
2021/03/04 09:27:59;;;;;;;;;;;17.10;62.80;;;;;;5045463;28;20019;-74
2021/03/04 09:30:29;;;;;;;;;;;17.10;62.70;;;;;;5031661;28;20418;-73
2021/03/04 09:32:56;;;;;;;;;;;17.10;62.70;;;;;;5044323;28;19952;-74
2021/03/04 09:35:22;;;;;;;;;;;17.10;62.70;;;;;;5041787;28;20358;-74
2021/03/04 09:37:47;;;;;;;;;;;17.10;62.70;;;;;;5044515;28;19959;-75
2021/03/04 09:40:24;;;;;;;;;;;17.20;62.70;;;;;;5026987;28;19963;-74
2021/03/04 09:42:49;;;;;;;;;;;17.10;62.60;;;;;;5021626;28;19939;-74
2021/03/04 09:45:15;;;;;;;;;;;17.20;62.60;;;;;;5027292;28;20558;-74
2021/03/04 09:47:45;;;;;;;;;;;17.10;62.60;;;;;;5022601;28;20435;-73
2021/03/04 09:50:18;;;;;;;;;;;17.10;62.50;;;;;;5024212;28;19913;-74
2021/03/04 09:52:44;;;;;;;;;;;17.10;62.40;;;;;;5042363;28;20027;-73
2021/03/04 09:55:11;;;;;;;;;;;17.20;62.40;;;;;;5044309;28;19956;-73
2021/03/04 09:57:41;;;;;;;;;;;17.20;62.30;;;;;;5047830;28;20419;-73
2021/03/04 10:00:18;;;;;;;;;;;17.20;62.30;;;;;;5045524;28;19995;-74
2021/03/04 10:02:56;;;;;;;;;;;17.20;62.30;;;;;;5047371;28;19912;-73
2021/03/04 10:05:23;;;;;;;;;;;17.20;62.30;;;;;;5042534;28;19947;-74
2021/03/04 10:07:49;;;;;;;;;;;17.20;62.20;;;;;;5046684;28;19936;-74
2021/03/04 10:10:19;;;;;;;;;;;17.30;62.20;;;;;;5032330;28;19919;-73
2021/03/04 10:12:52;;;;;;;;;;;17.20;62.20;;;;;;5044568;28;19979;-74
2021/03/04 10:15:30;;;;;;;;;;;17.30;62.20;;;;;;5035085;28;19917;-73
2021/03/04 10:17:56;;;;;;;;;;;17.30;62.10;;;;;;5042837;28;19960;-74
2021/03/04 10:20:21;;;;;;;;;;;17.30;62.10;;;;;;5045571;28;19912;-73
2021/03/04 10:22:48;;;;;;;;;;;17.30;62.10;;;;;;5039059;28;19920;-73
2021/03/04 10:25:13;;;;;;;;;;;17.30;62.20;;;;;;5044845;28;20003;-74
2021/03/04 10:27:39;;;;;;;;;;;17.20;62.20;;;;;;5045714;28;20019;-73
2021/03/04 10:30:10;;;;;;;;;;;17.20;62.30;;;;;;5027861;28;20492;-73
2021/03/04 10:32:36;;;;;;;;;;;17.20;62.30;;;;;;5043584;28;19916;-74
2021/03/04 10:35:07;;;;;;;;;;;17.20;62.30;;;;;;5046325;28;19923;-74
2021/03/04 10:37:33;;;;;;;;;;;17.20;62.30;;;;;;5042863;28;20410;-74
2021/03/04 10:40:03;;;;;;;;;;;17.10;62.40;;;;;;5047869;28;19919;-73
2021/03/04 10:42:28;;;;;;;;;;;17.10;62.40;;;;;;5044347;28;19920;-75
2021/03/04 10:44:59;;;;;;;;;;;17.10;62.50;;;;;;5050326;28;20228;-74
2021/03/04 10:47:25;;;;;;;;;;;17.10;62.50;;;;;;5034282;28;19923;-75
2021/03/04 10:49:50;;;;;;;;;;;17.10;62.50;;;;;;5024758;28;19913;-74
2021/03/04 10:52:16;;;;;;;;;;;17.10;62.50;;;;;;5032106;28;19959;-73
2021/03/04 10:54:44;;;;;;;;;;;17.10;62.50;;;;;;5044585;28;20080;-75
2021/03/04 10:57:09;;;;;;;;;;;17.10;62.50;;;;;;5029917;28;19939;-74
2021/03/04 10:59:41;;;;;;;;;;;17.10;62.40;;;;;;5046684;28;20393;-74
2021/03/04 11:02:06;;;;;;;;;;;17.10;62.50;;;;;;5048463;28;19928;-73
2021/03/04 11:04:37;;;;;;;;;;;17.10;62.50;;;;;;5049167;28;19913;-74
2021/03/04 11:07:03;;;;;;;;;;;17.10;62.40;;;;;;5030670;28;19928;-73
2021/03/04 11:09:28;;;;;;;;;;;17.20;62.50;;;;;;5033246;28;19974;-73
2021/03/04 11:11:54;;;;;;;;;;;17.10;62.40;;;;;;5048155;28;20015;-73
2021/03/04 11:14:19;;;;;;;;;;;17.20;62.40;;;;;;5050988;28;19917;-74
2021/03/04 11:16:45;;;;;;;;;;;17.10;62.40;;;;;;5048825;28;19924;-74
2021/03/04 11:19:11;;;;;;;;;;;17.20;62.30;;;;;;5024592;28;20324;-73
2021/03/04 11:21:37;;;;;;;;;;;17.20;62.30;;;;;;5043670;28;20011;-73
2021/03/04 11:24:05;;;;;;;;;;;17.20;62.30;;;;;;5046378;28;20357;-73
2021/03/04 11:26:37;;;;;;;;;;;17.20;62.30;;;;;;5046624;28;19983;-73
2021/03/04 11:29:08;;;;;;;;;;;17.20;62.30;;;;;;5032230;28;19925;-73
2021/03/04 11:31:35;;;;;;;;;;;17.10;62.30;;;;;;5028086;28;20270;-73
2021/03/04 11:34:00;;;;;;;;;;;17.20;62.30;;;;;;5045466;28;19978;-74
2021/03/04 11:36:28;;;;;;;;;;;17.20;62.30;;;;;;5033999;28;19917;-73
2021/03/04 11:38:53;;;;;;;;;;;17.20;62.30;;;;;;5040626;28;20007;-74
2021/03/04 11:41:19;;;;;;;;;;;17.20;62.20;;;;;;5050776;28;20354;-73
2021/03/04 11:43:44;;;;;;;;;;;17.20;62.20;;;;;;5049974;28;20421;-74
2021/03/04 11:46:11;;;;;;;;;;;17.20;62.20;;;;;;5026466;28;19913;-74
2021/03/04 11:48:36;;;;;;;;;;;17.20;62.20;;;;;;5029804;28;20004;-73
2021/03/04 11:51:07;;;;;;;;;;;17.20;62.20;;;;;;5049099;28;20028;-74
2021/03/04 11:53:46;;;;;;;;;;;17.20;62.20;;;;;;5028988;28;19956;-74
2021/03/04 11:56:27;;;;;;;;;;;17.20;62.10;;;;;;5035543;28;19923;-74
2021/03/04 11:59:05;;;;;;;;;;;17.20;62.10;;;;;;5029124;28;19917;-73
2021/03/04 12:01:35;;;;;;;;;;;17.20;62.10;;;;;;5032222;28;19913;-73
2021/03/04 12:04:06;;;;;;;;;;;17.20;62.10;;;;;;5045395;28;19920;-73
2021/03/04 12:06:33;;;;;;;;;;;17.30;62.10;;;;;;5042711;28;19951;-73
2021/03/04 12:09:03;;;;;;;;;;;17.30;62.10;;;;;;5040006;28;19947;-72
2021/03/04 12:11:32;;;;;;;;;;;17.30;62.00;;;;;;5028717;28;19952;-73
2021/03/04 12:14:00;;;;;;;;;;;17.30;62.00;;;;;;5029544;28;19941;-73
2021/03/04 12:16:29;;;;;;;;;;;17.30;62.00;;;;;;5033166;28;19917;-73
2021/03/04 12:18:59;;;;;;;;;;;17.30;62.00;;;;;;5043226;28;19946;-73
2021/03/04 12:21:31;;;;;;;;;;;17.30;62.00;;;;;;5043792;28;19921;-73
2021/03/04 12:23:57;;;;;;;;;;;17.30;61.90;;;;;;5029191;28;19919;-73
2021/03/04 12:26:22;;;;;;;;;;;17.30;61.90;;;;;;5024786;28;19912;-73
2021/03/04 12:28:50;;;;;;;;;;;17.30;61.80;;;;;;5047887;28;20023;-74
2021/03/04 12:31:19;;;;;;;;;;;17.30;61.70;;;;;;5044033;28;19916;-73
2021/03/04 12:33:49;;;;;;;;;;;17.30;61.60;;;;;;5027941;28;19983;-73
2021/03/04 12:36:15;;;;;;;;;;;17.30;61.60;;;;;;5040084;28;19975;-73
2021/03/04 12:38:46;;;;;;;;;;;17.40;61.50;;;;;;5024516;28;19913;-73
2021/03/04 12:41:14;;;;;;;;;;;17.40;61.60;;;;;;5044971;28;19919;-73
2021/03/04 12:43:39;;;;;;;;;;;17.30;61.50;;;;;;5047977;28;19935;-73
2021/03/04 12:46:05;;;;;;;;;;;17.40;61.50;;;;;;5047655;28;20358;-73
2021/03/04 12:48:30;;;;;;;;;;;17.30;61.50;;;;;;5040108;28;19916;-72
2021/03/04 12:50:56;;;;;;;;;;;17.40;61.40;;;;;;5025650;28;20374;-73
2021/03/04 12:53:22;;;;;;;;;;;17.40;61.50;;;;;;5040039;28;20429;-73
2021/03/04 12:55:47;;;;;;;;;;;17.40;61.40;;;;;;5046988;28;19917;-75
2021/03/04 12:58:14;;;;;;;;;;;17.40;61.40;;;;;;5029881;28;20000;-73
2021/03/04 13:00:39;;;;;;;;;;;17.40;61.40;;;;;;5035688;28;20254;-73
2021/03/04 13:03:05;;;;;;;;;;;17.40;61.30;;;;;;5048045;28;19935;-73
2021/03/04 13:05:30;;;;;;;;;;;17.40;61.30;;;;;;5030574;28;19908;-73
2021/03/04 13:07:56;;;;;;;;;;;17.40;61.30;;;;;;5045115;28;19921;-73
2021/03/04 13:10:21;;;;;;;;;;;17.40;61.30;;;;;;5030720;28;19991;-74
2021/03/04 13:12:47;;;;;;;;;;;17.50;61.20;;;;;;5042364;28;20350;-74
2021/03/04 13:15:13;;;;;;;;;;;17.50;61.10;;;;;;5028342;28;19940;-74
2021/03/04 13:17:38;;;;;;;;;;;17.50;61.10;;;;;;5029907;28;20266;-73
2021/03/04 13:20:04;;;;;;;;;;;17.50;61.10;;;;;;5046829;28;19921;-74
2021/03/04 13:22:30;;;;;;;;;;;17.50;61.10;;;;;;5047452;28;19916;-73
2021/03/04 13:24:55;;;;;;;;;;;17.50;61.10;;;;;;5028981;28;20457;-73
2021/03/04 13:27:22;;;;;;;;;;;17.50;61.10;;;;;;5041124;28;19917;-74
2021/03/04 13:29:47;;;;;;;;;;;17.50;61.10;;;;;;5029953;28;19943;-74
2021/03/04 13:32:13;;;;;;;;;;;17.50;61.10;;;;;;5028208;28;20353;-75
2021/03/04 13:34:38;;;;;;;;;;;17.50;61.10;;;;;;5043409;28;19943;-73
2021/03/04 13:37:04;;;;;;;;;;;17.50;61.20;;;;;;5044261;28;19921;-73
2021/03/04 13:39:29;;;;;;;;;;;17.50;61.20;;;;;;5026652;28;20410;-73
2021/03/04 13:41:55;;;;;;;;;;;17.50;61.20;;;;;;5043727;28;19916;-73
2021/03/04 13:44:20;;;;;;;;;;;17.40;61.30;;;;;;5057161;28;19912;-74
2021/03/04 13:46:46;;;;;;;;;;;17.50;61.30;;;;;;5049298;28;19971;-73
2021/03/04 13:49:11;;;;;;;;;;;17.40;61.20;;;;;;5026156;28;19963;-74
2021/03/04 13:51:37;;;;;;;;;;;17.50;61.20;;;;;;5042883;28;19921;-74
2021/03/04 13:54:03;;;;;;;;;;;17.40;61.30;;;;;;5040789;28;20322;-73
2021/03/04 13:56:28;;;;;;;;;;;17.40;61.30;;;;;;5041440;28;19917;-74
2021/03/04 13:58:54;;;;;;;;;;;17.40;61.40;;;;;;5029947;28;20398;-73
2021/03/04 14:01:19;;;;;;;;;;;17.40;61.30;;;;;;5044455;28;19928;-74
2021/03/04 14:03:45;;;;;;;;;;;17.40;61.30;;;;;;5038413;28;20008;-73
2021/03/04 14:06:11;;;;;;;;;;;17.40;61.30;;;;;;5044916;28;20358;-74
2021/03/04 14:08:36;;;;;;;;;;;17.50;61.30;;;;;;5033488;28;20437;-73
2021/03/04 14:11:02;;;;;;;;;;;17.40;61.20;;;;;;5030766;28;20361;-74
2021/03/04 14:13:27;;;;;;;;;;;17.40;61.20;;;;;;5041736;28;19927;-73
2021/03/04 14:15:53;;;;;;;;;;;17.50;61.10;;;;;;5032024;28;20019;-73
2021/03/04 14:18:19;;;;;;;;;;;17.50;61.10;;;;;;5038156;28;20324;-74
2021/03/04 14:20:44;;;;;;;;;;;17.50;61.10;;;;;;5042485;28;19943;-73